Time;durP1;ratioP1;P1;durP2;ratioP2;P2;SDS_P1;SDS_P2;PMS_P1;PMS_P2;Temp;Humidity;BMP_temperature;BMP_pressure;BME280_temperature;BME280_humidity;BME280_pressure;Samples;Min_cycle;Max_cycle;Signal;HPM_P1;HPM_P2
2022/01/11 00:00:23;;;;;;;34.63;19.93;;;3.10;99.90;;;;;;5052650;28;20439;-85
2022/01/11 00:02:51;;;;;;;28.60;19.97;;;3.10;99.90;;;;;;5052630;28;20483;-86
2022/01/11 00:05:23;;;;;;;33.53;21.07;;;2.80;99.90;;;;;;5052478;28;20882;-85
2022/01/11 00:07:52;;;;;;;30.97;19.90;;;2.90;99.90;;;;;;5052813;28;20457;-86
2022/01/11 00:10:26;;;;;;;29.03;21.13;;;2.80;99.90;;;;;;5053010;28;20562;-86
2022/01/11 00:12:54;;;;;;;30.43;21.30;;;2.70;99.90;;;;;;5053405;28;20641;-83
2022/01/11 00:15:20;;;;;;;30.83;21.17;;;2.70;99.90;;;;;;5056728;28;20454;-85
2022/01/11 00:17:47;;;;;;;28.07;20.90;;;2.80;99.90;;;;;;5056454;28;20460;-87
2022/01/11 00:20:16;;;;;;;30.67;21.73;;;2.80;99.90;;;;;;5055369;28;20468;-84
2022/01/11 00:24:27;;;;;;;39.20;22.33;;;2.80;99.90;;;;;;5056039;28;20483;-85
2022/01/11 00:25:39;;;;;;;31.17;19.97;;;2.70;99.90;;;;;;5056027;28;21111;-82
2022/01/11 00:28:14;;;;;;;33.27;20.80;;;2.80;99.90;;;;;;5055647;28;20432;-86
2022/01/11 00:30:43;;;;;;;30.40;22.23;;;2.80;99.90;;;;;;5055816;28;20446;-85
2022/01/11 00:33:15;;;;;;;28.80;20.73;;;2.70;99.90;;;;;;5055671;28;20910;-83
2022/01/11 00:35:45;;;;;;;32.10;22.10;;;2.80;99.90;;;;;;5055834;28;20452;-84
2022/01/11 00:38:16;;;;;;;31.20;21.50;;;2.90;99.90;;;;;;5056159;28;20447;-83
2022/01/11 00:40:46;;;;;;;30.67;21.60;;;2.90;99.90;;;;;;5055190;28;20447;-84
2022/01/11 00:43:14;;;;;;;32.33;22.07;;;2.90;99.90;;;;;;5055079;28;20533;-83
2022/01/11 00:45:43;;;;;;;32.73;21.40;;;2.80;99.90;;;;;;5050113;28;20579;-82
2022/01/11 00:48:11;;;;;;;34.80;23.80;;;2.60;99.90;;;;;;5035504;28;20943;-82
2022/01/11 00:50:40;;;;;;;34.67;22.17;;;2.60;99.90;;;;;;5035359;28;20436;-87
2022/01/11 00:53:09;;;;;;;29.63;21.27;;;2.50;99.90;;;;;;5035617;28;20467;-85
2022/01/11 00:55:40;;;;;;;30.93;22.23;;;2.60;99.90;;;;;;5035765;28;20444;-85
2022/01/11 00:58:08;;;;;;;30.77;21.20;;;2.60;99.90;;;;;;5017950;28;20920;-81
2022/01/11 01:00:38;;;;;;;31.77;22.90;;;2.70;99.90;;;;;;5035829;28;20436;-84
2022/01/11 01:03:07;;;;;;;36.10;22.17;;;2.80;99.90;;;;;;5035329;28;20473;-83
2022/01/11 01:05:36;;;;;;;35.27;23.37;;;2.80;99.90;;;;;;5035476;28;20429;-82
2022/01/11 01:08:05;;;;;;;33.43;22.37;;;2.80;99.90;;;;;;5034847;28;20429;-84
2022/01/11 01:10:37;;;;;;;32.17;22.33;;;2.80;99.90;;;;;;5034708;28;20923;-80
2022/01/11 01:13:10;;;;;;;34.07;20.97;;;2.70;99.90;;;;;;5035274;28;20445;-83
2022/01/11 01:15:41;;;;;;;37.63;22.03;;;2.80;99.90;;;;;;5035664;28;20466;-85
2022/01/11 01:18:11;;;;;;;35.47;21.87;;;2.80;99.90;;;;;;5035539;28;20536;-86
2022/01/11 01:20:38;;;;;;;36.83;22.50;;;2.80;99.90;;;;;;5035382;28;20436;-86
2022/01/11 01:23:07;;;;;;;35.57;22.23;;;2.80;99.90;;;;;;5035382;28;20553;-83
2022/01/11 01:25:35;;;;;;;32.53;22.33;;;2.80;99.90;;;;;;5034325;28;20433;-85
2022/01/11 01:28:02;;;;;;;33.13;20.77;;;2.80;99.90;;;;;;5035105;28;20445;-84
2022/01/11 01:30:35;;;;;;;31.73;20.67;;;2.80;99.90;;;;;;5035197;28;20428;-84
2022/01/11 01:33:01;;;;;;;34.97;21.90;;;2.80;99.90;;;;;;5033459;28;20947;-80
2022/01/11 01:35:36;;;;;;;33.20;21.90;;;2.70;99.90;;;;;;5035187;28;20445;-82
2022/01/11 01:38:04;;;;;;;31.20;21.10;;;2.60;99.90;;;;;;5034681;28;20456;-82
2022/01/11 01:40:37;;;;;;;34.50;21.63;;;2.60;99.90;;;;;;5034215;28;20455;-83
2022/01/11 01:43:04;;;;;;;34.57;20.37;;;2.70;99.90;;;;;;5034840;28;20593;-85
2022/01/11 01:45:33;;;;;;;34.70;21.90;;;2.70;99.90;;;;;;5037439;28;20546;-89
2022/01/11 01:48:02;;;;;;;34.00;21.33;;;2.70;99.90;;;;;;5054812;28;20455;-85
2022/01/11 01:50:30;;;;;;;29.70;19.97;;;2.70;99.90;;;;;;5054320;28;20930;-85
2022/01/11 01:53:03;;;;;;;31.37;20.37;;;2.70;99.90;;;;;;5054463;28;20828;-85
2022/01/11 01:55:31;;;;;;;31.47;20.43;;;2.60;99.90;;;;;;5054160;28;20435;-86
2022/01/11 01:58:00;;;;;;;37.07;20.87;;;2.70;99.90;;;;;;5054268;28;20462;-87
2022/01/11 02:00:29;;;;;;;31.53;19.57;;;2.70;99.90;;;;;;5054497;28;20463;-85
2022/01/11 02:03:06;;;;;;;33.00;20.13;;;2.70;99.90;;;;;;5054348;28;20502;-86
2022/01/11 02:05:33;;;;;;;29.13;19.30;;;2.60;99.90;;;;;;5054578;28;20997;-84
2022/01/11 02:08:03;;;;;;;28.73;19.10;;;2.50;99.90;;;;;;5054478;28;20447;-86
2022/01/11 02:10:31;;;;;;;29.83;18.97;;;2.50;99.90;;;;;;5054425;28;20452;-85
2022/01/11 02:13:01;;;;;;;32.50;18.63;;;2.60;99.90;;;;;;5054072;28;20447;-85
2022/01/11 02:15:29;;;;;;;25.13;17.87;;;2.60;99.90;;;;;;5053937;28;20481;-86
2022/01/11 02:18:09;;;;;;;24.30;17.17;;;2.70;99.90;;;;;;5054062;28;20432;-84
2022/01/11 02:20:39;;;;;;;27.50;17.50;;;2.60;99.90;;;;;;5053080;28;20439;-85
2022/01/11 02:23:08;;;;;;;25.00;17.90;;;2.60;99.90;;;;;;5053046;28;20475;-86
2022/01/11 02:25:38;;;;;;;25.07;16.57;;;2.50;99.90;;;;;;5054541;28;20432;-84
2022/01/11 02:28:14;;;;;;;27.87;18.03;;;2.40;99.90;;;;;;5054167;28;20440;-86
2022/01/11 02:30:45;;;;;;;29.03;18.27;;;2.40;99.90;;;;;;5053829;28;20450;-84
2022/01/11 02:33:22;;;;;;;27.77;18.23;;;2.40;99.90;;;;;;5053709;28;20447;-85
2022/01/11 02:35:55;;;;;;;21.97;16.10;;;2.50;99.90;;;;;;5053334;28;20436;-84
2022/01/11 02:38:22;;;;;;;25.27;16.63;;;2.60;99.90;;;;;;5052455;28;20451;-86
2022/01/11 02:40:51;;;;;;;25.00;17.63;;;2.50;99.90;;;;;;5053369;28;20459;-84
2022/01/11 02:43:18;;;;;;;27.60;23.88;;;2.50;99.90;;;;;;5052363;28;20496;-84
2022/01/11 02:45:45;;;;;;;24.67;18.97;;;2.60;99.90;;;;;;5053444;28;20580;-84
2022/01/11 02:48:12;;;;;;;24.37;17.57;;;2.60;99.90;;;;;;5034612;28;20463;-85
2022/01/11 02:50:45;;;;;;;25.93;17.33;;;2.60;99.90;;;;;;5033311;28;20449;-85
2022/01/11 02:53:15;;;;;;;24.97;17.63;;;2.50;99.90;;;;;;5033249;28;20488;-87
2022/01/11 02:55:43;;;;;;;25.33;17.20;;;2.40;99.90;;;;;;5033385;28;20452;-87
2022/01/11 02:58:10;;;;;;;28.27;18.33;;;2.50;99.90;;;;;;5033600;28;20452;-83
2022/01/11 03:00:39;;;;;;;26.23;17.73;;;2.50;99.90;;;;;;5033390;28;20443;-81
2022/01/11 03:03:11;;;;;;;25.53;15.77;;;2.40;99.90;;;;;;5033005;28;21044;-86
2022/01/11 03:05:46;;;;;;;22.43;16.77;;;2.30;99.90;;;;;;5033017;28;20475;-84
2022/01/11 03:08:20;;;;;;;21.47;16.60;;;2.40;99.90;;;;;;5033471;28;20566;-80
2022/01/11 03:10:49;;;;;;;26.60;17.27;;;2.40;99.90;;;;;;5032785;28;20531;-85
2022/01/11 03:13:18;;;;;;;24.83;16.50;;;2.30;99.90;;;;;;5033178;28;20798;-86
2022/01/11 03:15:49;;;;;;;26.83;17.17;;;2.40;99.90;;;;;;5032485;28;20451;-84
2022/01/11 03:18:16;;;;;;;23.00;17.10;;;2.40;99.90;;;;;;5032926;28;20448;-85
2022/01/11 03:20:46;;;;;;;27.08;23.25;;;2.30;99.90;;;;;;5014006;28;20841;-85
2022/01/11 03:23:14;;;;;;;24.03;18.73;;;2.40;99.90;;;;;;5035991;28;20570;-86
2022/01/11 03:25:49;;;;;;;23.53;17.47;;;2.30;99.90;;;;;;5052541;28;20475;-82
2022/01/11 03:28:16;;;;;;;25.83;16.93;;;2.40;99.90;;;;;;5051944;28;20439;-86
2022/01/11 03:30:43;;;;;;;21.47;16.37;;;2.40;99.90;;;;;;5052792;28;20465;-84
2022/01/11 03:33:11;;;;;;;22.80;16.27;;;2.40;99.90;;;;;;5053095;28;20452;-86
2022/01/11 03:35:40;;;;;;;23.03;16.37;;;2.30;99.90;;;;;;5052536;28;21009;-85
2022/01/11 03:38:11;;;;;;;23.67;15.83;;;2.30;99.90;;;;;;5053000;28;20431;-84
2022/01/11 03:40:43;;;;;;;25.50;16.50;;;2.20;99.90;;;;;;5052589;28;20428;-85
2022/01/11 03:43:11;;;;;;;25.50;17.43;;;2.10;99.90;;;;;;5052394;28;20501;-84
2022/01/11 03:45:39;;;;;;;22.20;16.90;;;2.20;99.90;;;;;;5052984;28;20459;-86
2022/01/11 03:48:07;;;;;;;26.67;17.50;;;2.20;99.90;;;;;;5054106;28;20455;-87
2022/01/11 03:50:34;;;;;;;25.87;16.97;;;2.20;99.90;;;;;;5055495;28;20454;-85
2022/01/11 03:53:11;;;;;;;23.87;17.40;;;2.30;99.90;;;;;;5056377;28;20440;-84
2022/01/11 03:55:58;;;;;;;23.87;16.97;;;2.30;99.90;;;;;;5056429;28;20454;-84
2022/01/11 03:58:29;;;;;;;27.23;21.13;;;2.30;99.90;;;;;;5056037;28;20441;-83
2022/01/11 04:00:58;;;;;;;24.60;17.70;;;2.40;99.90;;;;;;5056085;28;20198;-85
2022/01/11 04:03:31;;;;;;;24.00;17.13;;;2.40;99.90;;;;;;5056254;28;20536;-85
2022/01/11 04:05:57;;;;;;;21.70;15.97;;;2.40;99.90;;;;;;5056159;28;20505;-84
2022/01/11 04:08:26;;;;;;;24.00;16.43;;;2.40;99.90;;;;;;5056695;28;20442;-85
2022/01/11 04:10:54;;;;;;;24.17;17.20;;;2.40;99.90;;;;;;5056711;28;20436;-82
2022/01/11 04:13:23;;;;;;;24.23;17.30;;;2.40;99.90;;;;;;5056316;28;20436;-83
2022/01/11 04:15:54;;;;;;;22.10;16.43;;;2.40;99.90;;;;;;5056413;28;20447;-85
2022/01/11 04:18:23;;;;;;;26.03;17.27;;;2.20;99.90;;;;;;5056344;28;20451;-84
2022/01/11 04:20:54;;;;;;;22.13;16.70;;;2.30;99.90;;;;;;5055882;28;21017;-80
2022/01/11 04:23:21;;;;;;;22.47;16.23;;;2.30;99.90;;;;;;5056091;28;20448;-83
2022/01/11 04:25:48;;;;;;;28.13;17.20;;;2.30;99.90;;;;;;5037564;28;20459;-84
2022/01/11 04:28:16;;;;;;;25.80;18.00;;;2.30;99.90;;;;;;5055519;28;20452;-83
2022/01/11 04:30:46;;;;;;;27.03;17.73;;;2.30;99.90;;;;;;5055188;28;20485;-84
2022/01/11 04:33:14;;;;;;;25.20;17.47;;;2.30;99.90;;;;;;5055565;28;20434;-84
2022/01/11 04:35:44;;;;;;;27.67;17.07;;;2.30;99.90;;;;;;5055512;28;20447;-84
2022/01/11 04:38:12;;;;;;;27.27;17.13;;;2.30;99.90;;;;;;5055891;28;20440;-86
2022/01/11 04:40:39;;;;;;;26.30;16.83;;;2.20;99.90;;;;;;5055460;28;20443;-82
2022/01/11 04:43:06;;;;;;;25.13;16.80;;;2.30;99.90;;;;;;5055719;28;20447;-81
2022/01/11 04:45:32;;;;;;;25.33;17.33;;;2.20;99.90;;;;;;5055391;28;20494;-83
2022/01/11 04:47:59;;;;;;;25.07;16.73;;;2.20;99.90;;;;;;5055437;28;20466;-83
2022/01/11 04:50:28;;;;;;;29.03;17.43;;;2.10;99.90;;;;;;5055088;28;20451;-84
2022/01/11 04:52:57;;;;;;;27.67;17.67;;;2.20;99.90;;;;;;5055707;28;20444;-84
2022/01/11 04:55:25;;;;;;;24.63;16.47;;;2.00;99.90;;;;;;5055260;28;20536;-85
2022/01/11 04:57:51;;;;;;;25.13;16.70;;;2.10;99.90;;;;;;5055321;28;21057;-85
2022/01/11 05:00:20;;;;;;;26.57;17.17;;;2.00;99.90;;;;;;5054243;28;20806;-81
2022/01/11 05:02:56;;;;;;;25.27;17.23;;;2.00;99.90;;;;;;5055387;28;20459;-85
2022/01/11 05:05:28;;;;;;;26.27;17.27;;;1.90;99.90;;;;;;5055010;28;20985;-85
2022/01/11 05:07:55;;;;;;;26.73;17.60;;;1.90;99.90;;;;;;5055532;28;20458;-86
2022/01/11 05:10:23;;;;;;;25.17;16.83;;;1.90;99.90;;;;;;5055512;28;20498;-84
2022/01/11 05:12:52;;;;;;;27.30;17.60;;;1.80;99.90;;;;;;5058608;28;20878;-86
2022/01/11 05:15:23;;;;;;;24.73;16.27;;;1.80;99.90;;;;;;5058605;28;20446;-81
2022/01/11 05:17:51;;;;;;;24.40;16.37;;;1.70;99.90;;;;;;5055889;28;20464;-85
2022/01/11 05:20:18;;;;;;;25.33;17.30;;;1.80;99.90;;;;;;5056237;28;20523;-84
2022/01/11 05:22:50;;;;;;;24.53;16.70;;;1.70;99.90;;;;;;5055838;28;20457;-85
2022/01/11 05:25:17;;;;;;;22.33;16.27;;;1.80;99.90;;;;;;5056013;28;20866;-82
2022/01/11 05:27:44;;;;;;;23.70;16.13;;;1.90;99.90;;;;;;5056445;28;20520;-84
2022/01/11 05:30:13;;;;;;;24.17;16.40;;;1.80;99.90;;;;;;5057564;28;20432;-84
2022/01/11 05:32:42;;;;;;;26.67;16.97;;;1.80;99.90;;;;;;5057085;28;20443;-85
2022/01/11 05:35:13;;;;;;;28.53;17.77;;;1.80;99.90;;;;;;5058174;28;20451;-82
2022/01/11 05:37:42;;;;;;;25.97;17.03;;;1.70;99.90;;;;;;5057138;28;20436;-85
2022/01/11 05:40:13;;;;;;;37.77;20.13;;;1.80;99.90;;;;;;5055019;28;20439;-85
2022/01/11 05:42:40;;;;;;;27.57;18.03;;;1.80;99.90;;;;;;5053331;28;20482;-84
2022/01/11 05:45:10;;;;;;;29.13;18.00;;;1.80;99.90;;;;;;5054067;28;20483;-83
2022/01/11 05:47:37;;;;;;;26.27;16.47;;;1.90;99.90;;;;;;5053741;28;20865;-83
2022/01/11 05:50:07;;;;;;;30.50;17.93;;;1.90;99.90;;;;;;5051949;28;20882;-83
2022/01/11 05:52:38;;;;;;;27.67;17.10;;;1.90;99.90;;;;;;5053895;28;20447;-84
2022/01/11 05:55:08;;;;;;;26.30;17.73;;;2.00;99.90;;;;;;5053941;28;20463;-84
2022/01/11 05:57:38;;;;;;;29.80;17.73;;;2.00;99.90;;;;;;5054072;28;20806;-83
2022/01/11 06:00:10;;;;;;;29.30;17.47;;;2.00;99.90;;;;;;5053566;28;20443;-82
2022/01/11 06:02:37;;;;;;;30.87;18.13;;;2.10;99.90;;;;;;5053162;28;20459;-85
2022/01/11 06:05:05;;;;;;;27.73;17.00;;;2.00;99.90;;;;;;5052884;28;20467;-81
2022/01/11 06:07:32;;;;;;;27.33;17.63;;;2.20;99.90;;;;;;5052474;28;20451;-84
2022/01/11 06:09:59;;;;;;;28.60;17.53;;;2.20;99.90;;;;;;5053520;28;20458;-84
2022/01/11 06:12:25;;;;;;;25.37;16.80;;;2.20;99.90;;;;;;5053079;28;20448;-84
2022/01/11 06:14:55;;;;;;;29.00;18.33;;;2.20;99.90;;;;;;5052877;28;20462;-81
2022/01/11 06:17:21;;;;;;;28.97;17.13;;;2.10;99.90;;;;;;5053455;28;20519;-85
2022/01/11 06:19:49;;;;;;;28.70;16.63;;;2.10;99.90;;;;;;5053229;28;20450;-86
2022/01/11 06:22:16;;;;;;;27.23;17.13;;;2.10;99.90;;;;;;5053774;28;20435;-84
2022/01/11 06:24:43;;;;;;;29.33;17.90;;;2.30;99.90;;;;;;5053510;28;20494;-82
2022/01/11 06:27:11;;;;;;;24.13;16.57;;;2.20;99.90;;;;;;5053502;28;20428;-81
2022/01/11 06:29:38;;;;;;;25.67;16.20;;;2.10;99.90;;;;;;5052940;28;20446;-83
2022/01/11 06:32:07;;;;;;;30.65;23.77;;;2.20;99.90;;;;;;5051342;28;20432;-83
2022/01/11 06:34:34;;;;;;;36.60;20.40;;;2.20;99.90;;;;;;5053161;28;20210;-85
2022/01/11 06:37:01;;;;;;;28.47;17.80;;;2.20;99.90;;;;;;5053314;28;20438;-83
2022/01/11 06:39:29;;;;;;;30.37;18.93;;;2.30;99.90;;;;;;5053034;28;20439;-81
2022/01/11 06:41:57;;;;;;;27.77;15.23;;;2.30;99.90;;;;;;5052904;28;20468;-86
2022/01/11 06:44:23;;;;;;;25.37;16.93;;;2.40;99.90;;;;;;5053149;28;20482;-84
2022/01/11 06:46:50;;;;;;;27.27;17.30;;;2.30;99.90;;;;;;5034785;28;20442;-83
2022/01/11 06:49:24;;;;;;;30.37;17.93;;;2.30;99.90;;;;;;5052916;28;20463;-86
2022/01/11 06:51:52;;;;;;;29.57;17.57;;;2.30;99.90;;;;;;5039995;28;20452;-86
2022/01/11 06:54:24;;;;;;;31.33;17.57;;;2.20;99.90;;;;;;5033178;28;20432;-84
2022/01/11 06:56:52;;;;;;;29.63;18.20;;;2.20;99.90;;;;;;5033282;28;20432;-83
2022/01/11 06:59:20;;;;;;;29.57;17.70;;;2.30;99.90;;;;;;5032874;28;20440;-83
2022/01/11 07:01:48;;;;;;;32.13;18.30;;;2.20;99.90;;;;;;5033157;28;20436;-83
2022/01/11 07:04:15;;;;;;;28.67;18.23;;;2.20;99.90;;;;;;5032860;28;20936;-85
2022/01/11 07:06:43;;;;;;;33.63;19.67;;;2.30;99.90;;;;;;5032379;28;20491;-82
2022/01/11 07:09:10;;;;;;;35.10;19.67;;;2.40;99.90;;;;;;5033163;28;20448;-84
2022/01/11 07:11:37;;;;;;;31.67;18.87;;;2.30;99.90;;;;;;5032770;28;20914;-83
2022/01/11 07:14:04;;;;;;;31.47;18.90;;;2.30;99.90;;;;;;5032683;28;20444;-83
2022/01/11 07:16:31;;;;;;;30.43;18.07;;;2.20;99.90;;;;;;5033237;28;20453;-86
2022/01/11 07:18:58;;;;;;;31.90;18.73;;;2.20;99.90;;;;;;5032902;28;20455;-85
2022/01/11 07:21:26;;;;;;;32.23;18.93;;;2.30;99.90;;;;;;5032655;28;20456;-83
2022/01/11 07:23:54;;;;;;;32.77;18.93;;;2.30;99.90;;;;;;5035513;28;20459;-83
2022/01/11 07:26:21;;;;;;;30.67;18.50;;;2.30;99.90;;;;;;5036601;28;20476;-84
2022/01/11 07:28:49;;;;;;;34.67;19.43;;;2.40;99.90;;;;;;5036692;28;20550;-81
2022/01/11 07:31:16;;;;;;;34.33;18.73;;;2.40;99.90;;;;;;5036852;28;20436;-83
2022/01/11 07:33:44;;;;;;;32.50;19.57;;;2.40;99.90;;;;;;5037142;28;20439;-83
2022/01/11 07:36:11;;;;;;;34.13;19.37;;;2.40;99.90;;;;;;5036737;28;20459;-83
2022/01/11 07:38:38;;;;;;;36.27;19.60;;;2.40;99.90;;;;;;5036740;28;20950;-84
2022/01/11 07:41:07;;;;;;;33.67;19.77;;;2.20;99.90;;;;;;5036605;28;20479;-86
2022/01/11 07:43:34;;;;;;;35.73;20.93;;;2.30;99.90;;;;;;5036858;28;20436;-86
2022/01/11 07:46:01;;;;;;;37.63;21.13;;;2.40;99.90;;;;;;5018708;28;20480;-81
2022/01/11 07:48:28;;;;;;;38.23;20.83;;;2.40;99.90;;;;;;5036873;28;20456;-82
2022/01/11 07:50:56;;;;;;;37.80;19.47;;;2.40;99.90;;;;;;5036591;28;20436;-85
2022/01/11 07:53:22;;;;;;;35.30;20.37;;;2.50;99.90;;;;;;5036512;28;20535;-84
2022/01/11 07:55:49;;;;;;;38.87;20.40;;;2.50;99.90;;;;;;5036233;28;20448;-83
2022/01/11 07:58:18;;;;;;;35.33;19.67;;;2.40;99.90;;;;;;5036421;28;20455;-83
2022/01/11 08:00:47;;;;;;;38.23;20.20;;;2.40;99.90;;;;;;5036516;28;20452;-84
2022/01/11 08:03:14;;;;;;;37.13;21.23;;;2.50;99.90;;;;;;5036625;28;20982;-83
2022/01/11 08:05:41;;;;;;;37.27;20.50;;;2.60;99.90;;;;;;5036615;28;20500;-83
2022/01/11 08:08:08;;;;;;;38.80;21.93;;;2.50;99.90;;;;;;5036285;28;20456;-84
2022/01/11 08:10:36;;;;;;;39.43;21.80;;;2.50;99.90;;;;;;5036082;28;20936;-84
2022/01/11 08:13:09;;;;;;;38.97;20.10;;;2.60;99.90;;;;;;5051739;28;20444;-88
2022/01/11 08:15:37;;;;;;;37.50;19.60;;;2.60;99.90;;;;;;5056401;28;20478;-84
2022/01/11 08:18:06;;;;;;;38.80;21.53;;;2.60;99.90;;;;;;5056392;28;20436;-83
2022/01/11 08:20:33;;;;;;;42.07;21.03;;;2.60;99.90;;;;;;5056052;28;20436;-83
2022/01/11 08:22:59;;;;;;;38.17;21.13;;;2.70;99.90;;;;;;5055940;28;20438;-84
2022/01/11 08:25:27;;;;;;;44.03;21.47;;;2.60;99.90;;;;;;5056036;28;20482;-88
2022/01/11 08:27:54;;;;;;;41.40;21.53;;;2.60;99.90;;;;;;5055761;28;20427;-86
2022/01/11 08:30:27;;;;;;;39.97;21.60;;;2.60;99.90;;;;;;5055755;28;20535;-82
2022/01/11 08:32:55;;;;;;;37.47;20.90;;;2.70;99.90;;;;;;5055882;28;20443;-86
2022/01/11 08:35:24;;;;;;;42.47;22.33;;;2.60;99.90;;;;;;5055506;28;20439;-86
2022/01/11 08:37:51;;;;;;;38.00;21.23;;;2.60;99.90;;;;;;5057590;28;20447;-86
2022/01/11 08:40:18;;;;;;;35.60;21.17;;;2.70;99.90;;;;;;5055575;28;20447;-83
2022/01/11 08:42:45;;;;;;;37.50;20.20;;;2.70;99.90;;;;;;5055548;28;20911;-83
2022/01/11 08:45:12;;;;;;;39.13;22.17;;;2.80;99.90;;;;;;5055770;28;20893;-83
2022/01/11 08:47:39;;;;;;;46.47;23.07;;;2.90;99.90;;;;;;5055923;28;20467;-88
2022/01/11 08:50:11;;;;;;;41.17;22.77;;;2.90;99.90;;;;;;5055547;28;20443;-85
2022/01/11 08:52:39;;;;;;;38.43;20.73;;;3.00;99.90;;;;;;5048586;28;20564;-85
2022/01/11 08:55:31;;;;;;;35.20;20.40;;;3.10;99.90;;;;;;5053671;28;20958;-92
2022/01/11 08:58:01;;;;;;;40.60;21.00;;;3.10;99.90;;;;;;5056093;28;20432;-88
2022/01/11 09:00:28;;;;;;;39.77;20.97;;;3.00;99.90;;;;;;5054365;28;20456;-83
2022/01/11 09:02:55;;;;;;;35.93;20.23;;;2.90;99.90;;;;;;5053460;28;21050;-85
2022/01/11 09:05:24;;;;;;;37.43;20.43;;;3.00;99.90;;;;;;5054829;28;20503;-83
2022/01/11 09:07:51;;;;;;;39.73;21.43;;;3.10;99.90;;;;;;5055467;28;20436;-83
2022/01/11 09:10:18;;;;;;;38.83;20.47;;;3.10;99.90;;;;;;5054769;28;20447;-81
2022/01/11 09:12:46;;;;;;;38.43;20.53;;;3.20;99.90;;;;;;5054774;28;20452;-85
2022/01/11 09:15:13;;;;;;;42.30;21.07;;;3.20;99.90;;;;;;5055046;28;20459;-86
2022/01/11 09:17:41;;;;;;;35.13;19.57;;;3.10;99.90;;;;;;5054193;28;20926;-84
2022/01/11 09:20:11;;;;;;;38.10;20.97;;;3.10;99.90;;;;;;5054731;28;20446;-84
2022/01/11 09:22:40;;;;;;;36.00;20.53;;;3.00;99.90;;;;;;5054299;28;20440;-84
2022/01/11 09:25:08;;;;;;;38.90;20.60;;;3.00;99.90;;;;;;5054801;28;20483;-84
2022/01/11 09:27:36;;;;;;;36.27;19.97;;;3.00;99.90;;;;;;5036891;28;20448;-84
2022/01/11 09:30:06;;;;;;;35.83;20.33;;;3.10;99.90;;;;;;5054578;28;20875;-84
2022/01/11 09:32:34;;;;;;;36.50;20.60;;;3.10;99.90;;;;;;5054857;28;20436;-84
2022/01/11 09:35:01;;;;;;;35.03;20.10;;;3.20;99.90;;;;;;5054978;28;20431;-84
2022/01/11 09:37:28;;;;;;;36.00;20.70;;;3.20;99.90;;;;;;5054010;28;20453;-85
2022/01/11 09:39:56;;;;;;;35.47;19.23;;;3.30;99.90;;;;;;5054773;28;20941;-88
2022/01/11 09:42:26;;;;;;;36.33;18.70;;;3.30;99.90;;;;;;5054844;28;20467;-87
2022/01/11 09:44:54;;;;;;;36.57;18.93;;;3.30;99.90;;;;;;5055121;28;20530;-89
2022/01/11 09:47:21;;;;;;;37.00;21.07;;;3.20;99.90;;;;;;5054104;28;20448;-86
2022/01/11 09:49:47;;;;;;;39.67;19.63;;;3.30;99.90;;;;;;5054662;28;20984;-87
2022/01/11 09:52:15;;;;;;;33.00;19.10;;;3.30;99.90;;;;;;5054081;28;20439;-85
2022/01/11 09:54:46;;;;;;;33.27;18.50;;;3.30;99.90;;;;;;5054437;28;20778;-85
2022/01/11 09:57:15;;;;;;;36.60;19.77;;;3.30;99.90;;;;;;5054781;28;20456;-85
2022/01/11 09:59:42;;;;;;;34.97;18.57;;;3.30;99.90;;;;;;5054464;28;20439;-84
2022/01/11 10:02:10;;;;;;;32.10;18.90;;;3.30;99.90;;;;;;5055476;28;20443;-85
2022/01/11 10:04:38;;;;;;;31.90;17.70;;;3.30;99.90;;;;;;5054183;28;20543;-84
2022/01/11 10:07:06;;;;;;;34.87;18.17;;;3.30;99.90;;;;;;5053959;28;20498;-84
2022/01/11 10:09:41;;;;;;;36.60;18.97;;;3.40;99.90;;;;;;5053526;28;20440;-83
2022/01/11 10:12:10;;;;;;;32.93;18.20;;;3.40;99.90;;;;;;5054132;28;20447;-83
2022/01/11 10:14:46;;;;;;;34.23;18.97;;;3.40;99.90;;;;;;5054049;28;20444;-87
2022/01/11 10:17:17;;;;;;;36.87;19.10;;;3.40;99.90;;;;;;5053940;28;20953;-85
2022/01/11 10:19:46;;;;;;;33.60;18.30;;;3.50;99.90;;;;;;5053781;28;20486;-87
2022/01/11 10:22:15;;;;;;;31.33;18.20;;;3.50;99.90;;;;;;5053591;28;20494;-84
2022/01/11 10:24:43;;;;;;;34.10;18.50;;;3.50;99.90;;;;;;5053634;28;20454;-84
2022/01/11 10:27:14;;;;;;;34.43;20.17;;;3.60;99.90;;;;;;5053614;28;20479;-82
2022/01/11 10:29:44;;;;;;;30.03;18.33;;;3.50;99.90;;;;;;5054464;28;20787;-85
2022/01/11 10:32:18;;;;;;;33.37;19.23;;;3.60;99.90;;;;;;5053551;28;20782;-82
2022/01/11 10:34:48;;;;;;;33.90;19.43;;;3.60;99.90;;;;;;5054006;28;20448;-80
2022/01/11 10:37:17;;;;;;;33.37;18.47;;;3.60;99.90;;;;;;5053100;28;20456;-81
2022/01/11 10:39:45;;;;;;;34.37;19.03;;;3.60;99.90;;;;;;5053511;28;20455;-88
2022/01/11 10:42:28;;;;;;;33.50;19.33;;;3.50;99.90;;;;;;5053213;28;20483;-83
2022/01/11 10:44:59;;;;;;;32.50;18.70;;;3.50;99.90;;;;;;5053382;28;20452;-84
2022/01/11 10:47:28;;;;;;;31.73;16.97;;;3.60;99.90;;;;;;5053442;28;20533;-82
2022/01/11 10:49:58;;;;;;;29.20;17.97;;;3.60;99.90;;;;;;5052720;28;20448;-84
2022/01/11 10:52:27;;;;;;;33.63;19.37;;;3.70;99.90;;;;;;5053026;28;20451;-83
2022/01/11 10:54:54;;;;;;;34.87;19.07;;;3.80;99.90;;;;;;5033668;28;20498;-84
2022/01/11 10:57:24;;;;;;;30.40;17.50;;;3.80;99.90;;;;;;5032720;28;20464;-80
2022/01/11 11:00:15;;;;;;;31.67;18.23;;;3.90;99.90;;;;;;5033596;28;20444;-81
2022/01/11 11:02:44;;;;;;;33.87;18.33;;;4.00;99.90;;;;;;5033067;28;20451;-80
2022/01/11 11:05:18;;;;;;;30.43;18.57;;;4.00;99.90;;;;;;5033001;28;20544;-81
2022/01/11 11:07:53;;;;;;;33.77;17.50;;;4.00;99.90;;;;;;5033067;28;20515;-81
2022/01/11 11:10:30;;;;;;;38.07;19.17;;;4.00;99.90;;;;;;5033107;28;20500;-83
2022/01/11 11:12:57;;;;;;;34.77;18.13;;;4.10;99.90;;;;;;5032902;28;20857;-85
2022/01/11 11:15:30;;;;;;;33.00;19.47;;;4.00;99.90;;;;;;5032676;28;20480;-82
2022/01/11 11:17:57;;;;;;;34.13;19.50;;;4.00;99.90;;;;;;5037906;28;20425;-91
2022/01/11 11:20:25;;;;;;;32.90;18.47;;;4.00;99.90;;;;;;5031189;28;20439;-86
2022/01/11 11:22:52;;;;;;;35.53;25.58;;;4.10;99.90;;;;;;5050998;28;20433;-82
2022/01/11 11:25:19;;;;;;;35.07;19.67;;;4.10;99.90;;;;;;5052721;28;20213;-85
2022/01/11 11:27:46;;;;;;;33.03;19.40;;;4.00;99.90;;;;;;5052956;28;20479;-87
2022/01/11 11:30:13;;;;;;;31.60;19.07;;;3.80;99.90;;;;;;5053125;28;20467;-86
2022/01/11 11:32:42;;;;;;;33.40;18.53;;;3.70;99.90;;;;;;5052981;28;20439;-84
2022/01/11 11:35:09;;;;;;;34.77;19.57;;;3.60;99.90;;;;;;5052779;28;20820;-85
2022/01/11 11:37:39;;;;;;;31.67;17.83;;;3.60;99.90;;;;;;5053420;28;20455;-86
2022/01/11 11:40:12;;;;;;;30.37;18.40;;;3.60;99.90;;;;;;5053188;28;20462;-87
2022/01/11 11:42:40;;;;;;;36.20;19.43;;;3.70;99.90;;;;;;5052760;28;20471;-85
2022/01/11 11:45:16;;;;;;;33.23;18.53;;;3.70;99.90;;;;;;5052885;28;20447;-82
2022/01/11 11:47:45;;;;;;;31.17;17.60;;;3.80;99.90;;;;;;5052506;28;20483;-85
2022/01/11 11:50:15;;;;;;;37.50;18.20;;;3.90;99.90;;;;;;5052842;28;20455;-85
2022/01/11 11:52:44;;;;;;;27.23;16.47;;;4.00;99.90;;;;;;5035040;28;20518;-86
2022/01/11 11:55:16;;;;;;;32.90;18.10;;;3.90;99.90;;;;;;5033270;28;20436;-84
2022/01/11 11:57:43;;;;;;;32.80;18.23;;;4.00;99.90;;;;;;5032786;28;20927;-84
2022/01/11 12:00:16;;;;;;;31.73;18.43;;;4.00;99.90;;;;;;5015174;28;20502;-83
2022/01/11 12:02:46;;;;;;;35.50;18.17;;;4.00;99.90;;;;;;5032634;28;20452;-82
2022/01/11 12:05:15;;;;;;;32.27;17.93;;;4.00;99.90;;;;;;5032859;28;20451;-85
2022/01/11 12:07:45;;;;;;;32.67;18.70;;;4.10;99.90;;;;;;5032998;28;20496;-85
2022/01/11 12:10:17;;;;;;;31.13;17.97;;;4.10;99.90;;;;;;5036107;28;20420;-85
2022/01/11 12:12:52;;;;;;;27.80;17.13;;;4.10;99.90;;;;;;5037591;28;20544;-86
2022/01/11 12:15:37;;;;;;;32.27;18.23;;;4.10;99.90;;;;;;5037376;28;20460;-84
2022/01/11 12:18:18;;;;;;;30.43;17.30;;;4.00;99.90;;;;;;5036618;28;20462;-76
2022/01/11 12:20:49;;;;;;;35.20;23.52;;;4.00;99.90;;;;;;5018860;28;20468;-87
2022/01/11 12:23:52;;;;;;;32.90;18.97;;;4.20;99.90;;;;;;5036888;28;20210;-87
2022/01/11 12:26:22;;;;;;;29.23;18.57;;;4.30;99.90;;;;;;5035758;28;20226;-86
2022/01/11 12:29:21;;;;;;;31.93;19.23;;;4.20;99.90;;;;;;5036237;28;20810;-85
2022/01/11 12:31:53;;;;;;;30.60;19.40;;;4.30;99.90;;;;;;5035662;28;20977;-83
2022/01/11 12:34:56;;;;;;;32.17;24.17;;;4.30;99.90;;;;;;5034454;28;20435;-85
2022/01/11 12:37:33;;;;;;;30.37;18.63;;;4.50;99.90;;;;;;5035905;28;20206;-84
2022/01/11 12:40:26;;;;;;;31.20;19.33;;;4.40;99.90;;;;;;5035732;28;20268;-81
2022/01/11 12:43:02;;;;;;;24.97;16.43;;;4.50;99.90;;;;;;5036111;28;20445;-82
2022/01/11 12:45:55;;;;;;;25.67;15.90;;;4.50;99.90;;;;;;5035848;28;20779;-86
2022/01/11 12:48:58;;;;;;;26.67;15.70;;;4.60;99.90;;;;;;5035375;28;20807;-85